sensor_id;sensor_type;location;lat;lon;timestamp;temperature;humidity
2579;DHT22;1299;48.282;14.398;2023-02-28T00:00:21;1.60;99.90
2579;DHT22;1299;48.282;14.398;2023-02-28T00:02:48;1.70;99.90
2579;DHT22;1299;48.282;14.398;2023-02-28T00:05:17;1.70;99.90
2579;DHT22;1299;48.282;14.398;2023-02-28T00:07:46;1.60;99.90
2579;DHT22;1299;48.282;14.398;2023-02-28T00:10:16;1.70;99.90
2579;DHT22;1299;48.282;14.398;2023-02-28T00:12:46;1.70;99.90
2579;DHT22;1299;48.282;14.398;2023-02-28T00:15:14;1.50;99.90
2579;DHT22;1299;48.282;14.398;2023-02-28T00:17:42;1.60;99.90
2579;DHT22;1299;48.282;14.398;2023-02-28T00:20:11;1.50;99.90
2579;DHT22;1299;48.282;14.398;2023-02-28T00:22:41;1.50;99.90
2579;DHT22;1299;48.282;14.398;2023-02-28T00:25:10;1.30;99.90
2579;DHT22;1299;48.282;14.398;2023-02-28T00:27:38;1.10;99.90
2579;DHT22;1299;48.282;14.398;2023-02-28T00:30:08;1.10;99.90
2579;DHT22;1299;48.282;14.398;2023-02-28T00:32:36;1.10;99.90
2579;DHT22;1299;48.282;14.398;2023-02-28T00:35:07;1.20;99.90
2579;DHT22;1299;48.282;14.398;2023-02-28T00:37:34;1.20;99.90
2579;DHT22;1299;48.282;14.398;2023-02-28T00:40:02;1.10;99.90
2579;DHT22;1299;48.282;14.398;2023-02-28T00:42:32;0.90;99.90
2579;DHT22;1299;48.282;14.398;2023-02-28T00:44:59;1.00;99.90
2579;DHT22;1299;48.282;14.398;2023-02-28T00:47:27;1.10;99.90
2579;DHT22;1299;48.282;14.398;2023-02-28T00:49:54;1.10;99.90
2579;DHT22;1299;48.282;14.398;2023-02-28T00:52:23;0.90;99.90
2579;DHT22;1299;48.282;14.398;2023-02-28T00:54:50;1.10;99.90
2579;DHT22;1299;48.282;14.398;2023-02-28T00:57:17;1.00;99.90
2579;DHT22;1299;48.282;14.398;2023-02-28T00:59:44;1.00;99.90
2579;DHT22;1299;48.282;14.398;2023-02-28T01:02:12;1.10;99.90
2579;DHT22;1299;48.282;14.398;2023-02-28T01:04:39;1.00;99.90
2579;DHT22;1299;48.282;14.398;2023-02-28T01:07:07;1.00;99.90
2579;DHT22;1299;48.282;14.398;2023-02-28T01:09:35;0.90;99.90
2579;DHT22;1299;48.282;14.398;2023-02-28T01:12:03;0.80;99.90
2579;DHT22;1299;48.282;14.398;2023-02-28T01:14:30;1.00;99.90
2579;DHT22;1299;48.282;14.398;2023-02-28T01:16:58;0.90;99.90
2579;DHT22;1299;48.282;14.398;2023-02-28T01:19:25;1.00;99.90
2579;DHT22;1299;48.282;14.398;2023-02-28T01:21:52;1.00;99.90
2579;DHT22;1299;48.282;14.398;2023-02-28T01:24:20;1.00;99.90
2579;DHT22;1299;48.282;14.398;2023-02-28T01:26:48;1.00;99.90
2579;DHT22;1299;48.282;14.398;2023-02-28T01:29:16;0.90;99.90
2579;DHT22;1299;48.282;14.398;2023-02-28T01:31:43;0.80;99.90
2579;DHT22;1299;48.282;14.398;2023-02-28T01:34:10;0.70;99.90
2579;DHT22;1299;48.282;14.398;2023-02-28T01:36:38;0.70;99.90
2579;DHT22;1299;48.282;14.398;2023-02-28T01:39:05;0.70;99.90
2579;DHT22;1299;48.282;14.398;2023-02-28T01:41:34;0.90;99.90
2579;DHT22;1299;48.282;14.398;2023-02-28T01:44:06;0.80;99.90
2579;DHT22;1299;48.282;14.398;2023-02-28T01:46:35;0.80;99.90
2579;DHT22;1299;48.282;14.398;2023-02-28T01:49:06;0.60;99.90
2579;DHT22;1299;48.282;14.398;2023-02-28T01:51:39;0.70;99.90
2579;DHT22;1299;48.282;14.398;2023-02-28T01:54:15;0.70;99.90
2579;DHT22;1299;48.282;14.398;2023-02-28T01:56:45;0.70;99.90
2579;DHT22;1299;48.282;14.398;2023-02-28T01:59:22;0.80;99.90
2579;DHT22;1299;48.282;14.398;2023-02-28T02:01:50;0.80;99.90
2579;DHT22;1299;48.282;14.398;2023-02-28T02:04:18;0.80;99.90
2579;DHT22;1299;48.282;14.398;2023-02-28T02:06:50;0.90;99.90
2579;DHT22;1299;48.282;14.398;2023-02-28T02:09:17;1.00;99.90
2579;DHT22;1299;48.282;14.398;2023-02-28T02:11:45;1.10;99.90
2579;DHT22;1299;48.282;14.398;2023-02-28T02:14:41;1.00;99.90
2579;DHT22;1299;48.282;14.398;2023-02-28T02:17:23;1.10;99.90
2579;DHT22;1299;48.282;14.398;2023-02-28T02:23:26;1.20;99.90
2579;DHT22;1299;48.282;14.398;2023-02-28T02:26:06;1.20;99.90
2579;DHT22;1299;48.282;14.398;2023-02-28T02:28:55;1.00;99.90
2579;DHT22;1299;48.282;14.398;2023-02-28T02:31:52;1.10;99.90
2579;DHT22;1299;48.282;14.398;2023-02-28T02:37:29;0.90;99.90
2579;DHT22;1299;48.282;14.398;2023-02-28T02:40:07;0.90;99.90
2579;DHT22;1299;48.282;14.398;2023-02-28T02:42:41;0.90;99.90
2579;DHT22;1299;48.282;14.398;2023-02-28T02:45:14;1.00;99.90
2579;DHT22;1299;48.282;14.398;2023-02-28T02:47:44;1.00;99.90
2579;DHT22;1299;48.282;14.398;2023-02-28T02:50:17;1.00;99.90
2579;DHT22;1299;48.282;14.398;2023-02-28T02:52:48;0.70;99.90
2579;DHT22;1299;48.282;14.398;2023-02-28T02:55:18;0.60;99.90
2579;DHT22;1299;48.282;14.398;2023-02-28T02:57:50;0.40;99.90
2579;DHT22;1299;48.282;14.398;2023-02-28T03:00:23;0.40;99.90
2579;DHT22;1299;48.282;14.398;2023-02-28T03:02:54;0.50;99.90
2579;DHT22;1299;48.282;14.398;2023-02-28T03:05:26;0.50;99.90
2579;DHT22;1299;48.282;14.398;2023-02-28T03:07:54;0.60;99.90
2579;DHT22;1299;48.282;14.398;2023-02-28T03:10:42;0.60;99.90
2579;DHT22;1299;48.282;14.398;2023-02-28T03:13:48;0.60;99.90
2579;DHT22;1299;48.282;14.398;2023-02-28T03:16:32;0.60;99.90
2579;DHT22;1299;48.282;14.398;2023-02-28T03:19:10;0.60;99.90
2579;DHT22;1299;48.282;14.398;2023-02-28T03:21:49;0.70;99.90
2579;DHT22;1299;48.282;14.398;2023-02-28T03:24:26;0.60;99.90
2579;DHT22;1299;48.282;14.398;2023-02-28T03:26:58;0.70;99.90
2579;DHT22;1299;48.282;14.398;2023-02-28T03:29:33;0.80;99.90
2579;DHT22;1299;48.282;14.398;2023-02-28T03:32:05;0.80;99.90
2579;DHT22;1299;48.282;14.398;2023-02-28T03:34:43;0.80;99.90
2579;DHT22;1299;48.282;14.398;2023-02-28T03:37:18;0.90;99.90
2579;DHT22;1299;48.282;14.398;2023-02-28T03:39:51;0.70;99.90
2579;DHT22;1299;48.282;14.398;2023-02-28T03:42:23;0.60;99.90
2579;DHT22;1299;48.282;14.398;2023-02-28T03:44:54;0.60;99.90
2579;DHT22;1299;48.282;14.398;2023-02-28T03:47:27;0.70;99.90
2579;DHT22;1299;48.282;14.398;2023-02-28T03:49:59;0.70;99.90
2579;DHT22;1299;48.282;14.398;2023-02-28T03:52:34;0.80;99.90
2579;DHT22;1299;48.282;14.398;2023-02-28T03:55:06;0.70;99.90
2579;DHT22;1299;48.282;14.398;2023-02-28T03:57:39;0.60;99.90
2579;DHT22;1299;48.282;14.398;2023-02-28T04:00:10;0.50;99.90
2579;DHT22;1299;48.282;14.398;2023-02-28T04:02:39;0.30;99.90
2579;DHT22;1299;48.282;14.398;2023-02-28T04:05:07;0.30;99.90
2579;DHT22;1299;48.282;14.398;2023-02-28T04:07:37;0.30;99.90
2579;DHT22;1299;48.282;14.398;2023-02-28T04:10:05;0.40;99.90
2579;DHT22;1299;48.282;14.398;2023-02-28T04:12:33;0.50;99.90
2579;DHT22;1299;48.282;14.398;2023-02-28T04:15:00;0.50;99.90
2579;DHT22;1299;48.282;14.398;2023-02-28T04:17:28;0.60;99.90
2579;DHT22;1299;48.282;14.398;2023-02-28T04:19:55;0.60;99.90
2579;DHT22;1299;48.282;14.398;2023-02-28T04:22:23;0.40;99.90
2579;DHT22;1299;48.282;14.398;2023-02-28T04:24:54;0.50;99.90
2579;DHT22;1299;48.282;14.398;2023-02-28T04:27:21;0.40;99.90
2579;DHT22;1299;48.282;14.398;2023-02-28T04:29:49;0.50;99.90
2579;DHT22;1299;48.282;14.398;2023-02-28T04:32:16;0.50;99.90
2579;DHT22;1299;48.282;14.398;2023-02-28T04:34:43;0.40;99.90
2579;DHT22;1299;48.282;14.398;2023-02-28T04:37:11;0.50;99.90
2579;DHT22;1299;48.282;14.398;2023-02-28T04:42:07;0.50;99.90
2579;DHT22;1299;48.282;14.398;2023-02-28T04:44:35;0.60;99.90
2579;DHT22;1299;48.282;14.398;2023-02-28T04:47:02;0.60;99.90
2579;DHT22;1299;48.282;14.398;2023-02-28T04:49:29;0.60;99.90
2579;DHT22;1299;48.282;14.398;2023-02-28T04:51:57;0.20;99.90
2579;DHT22;1299;48.282;14.398;2023-02-28T04:54:24;0.30;99.90
2579;DHT22;1299;48.282;14.398;2023-02-28T04:56:51;0.40;99.90
2579;DHT22;1299;48.282;14.398;2023-02-28T04:59:20;0.50;99.90
2579;DHT22;1299;48.282;14.398;2023-02-28T05:01:48;0.50;99.90
2579;DHT22;1299;48.282;14.398;2023-02-28T05:04:16;0.50;99.90
2579;DHT22;1299;48.282;14.398;2023-02-28T05:06:44;0.50;99.90
2579;DHT22;1299;48.282;14.398;2023-02-28T05:09:12;0.60;99.90
2579;DHT22;1299;48.282;14.398;2023-02-28T05:11:39;0.60;99.90
2579;DHT22;1299;48.282;14.398;2023-02-28T05:14:10;0.70;99.90
2579;DHT22;1299;48.282;14.398;2023-02-28T05:16:39;0.70;99.90
2579;DHT22;1299;48.282;14.398;2023-02-28T05:19:06;0.70;99.90
2579;DHT22;1299;48.282;14.398;2023-02-28T05:21:35;0.60;99.90
2579;DHT22;1299;48.282;14.398;2023-02-28T05:24:04;0.60;99.90
2579;DHT22;1299;48.282;14.398;2023-02-28T05:26:35;0.60;99.90
2579;DHT22;1299;48.282;14.398;2023-02-28T05:29:03;0.50;99.90
2579;DHT22;1299;48.282;14.398;2023-02-28T05:31:31;0.60;99.90
2579;DHT22;1299;48.282;14.398;2023-02-28T05:33:59;0.40;99.90
2579;DHT22;1299;48.282;14.398;2023-02-28T05:36:27;0.40;99.90
2579;DHT22;1299;48.282;14.398;2023-02-28T05:38:54;0.40;99.90
2579;DHT22;1299;48.282;14.398;2023-02-28T05:41:22;0.40;99.90
2579;DHT22;1299;48.282;14.398;2023-02-28T05:43:49;0.50;99.90
2579;DHT22;1299;48.282;14.398;2023-02-28T05:46:17;0.50;99.90
2579;DHT22;1299;48.282;14.398;2023-02-28T05:48:47;0.40;99.90
2579;DHT22;1299;48.282;14.398;2023-02-28T05:51:16;0.40;99.90
2579;DHT22;1299;48.282;14.398;2023-02-28T05:53:44;0.50;99.90
2579;DHT22;1299;48.282;14.398;2023-02-28T05:56:12;0.50;99.90
2579;DHT22;1299;48.282;14.398;2023-02-28T05:58:40;0.40;99.90
2579;DHT22;1299;48.282;14.398;2023-02-28T06:01:24;0.50;99.90
2579;DHT22;1299;48.282;14.398;2023-02-28T06:03:58;0.50;99.90
2579;DHT22;1299;48.282;14.398;2023-02-28T06:06:27;0.50;99.90
2579;DHT22;1299;48.282;14.398;2023-02-28T06:08:55;0.60;99.90
2579;DHT22;1299;48.282;14.398;2023-02-28T06:11:22;0.60;99.90
2579;DHT22;1299;48.282;14.398;2023-02-28T06:13:54;0.60;99.90
2579;DHT22;1299;48.282;14.398;2023-02-28T06:16:22;0.80;99.90
2579;DHT22;1299;48.282;14.398;2023-02-28T06:18:50;0.80;99.90
2579;DHT22;1299;48.282;14.398;2023-02-28T06:21:18;0.70;99.90
2579;DHT22;1299;48.282;14.398;2023-02-28T06:23:47;2.10;99.90
2579;DHT22;1299;48.282;14.398;2023-02-28T06:26:15;4.40;99.90
2579;DHT22;1299;48.282;14.398;2023-02-28T06:28:42;6.20;99.90
2579;DHT22;1299;48.282;14.398;2023-02-28T06:31:12;7.50;93.10
2579;DHT22;1299;48.282;14.398;2023-02-28T06:33:40;8.50;94.10
2579;DHT22;1299;48.282;14.398;2023-02-28T06:36:09;9.80;91.20
2579;DHT22;1299;48.282;14.398;2023-02-28T06:38:37;10.90;85.20
2579;DHT22;1299;48.282;14.398;2023-02-28T06:41:07;11.60;82.40
2579;DHT22;1299;48.282;14.398;2023-02-28T06:43:36;12.20;83.70
2579;DHT22;1299;48.282;14.398;2023-02-28T06:46:06;12.30;79.70
2579;DHT22;1299;48.282;14.398;2023-02-28T06:48:34;13.10;81.60
2579;DHT22;1299;48.282;14.398;2023-02-28T06:51:02;14.00;74.70
2579;DHT22;1299;48.282;14.398;2023-02-28T06:53:30;14.30;72.70
2579;DHT22;1299;48.282;14.398;2023-02-28T06:55:57;14.70;71.40
2579;DHT22;1299;48.282;14.398;2023-02-28T06:58:26;15.20;71.30
2579;DHT22;1299;48.282;14.398;2023-02-28T07:00:53;15.40;71.80
2579;DHT22;1299;48.282;14.398;2023-02-28T07:05:49;15.80;66.80
2579;DHT22;1299;48.282;14.398;2023-02-28T07:08:17;16.70;66.80
2579;DHT22;1299;48.282;14.398;2023-02-28T07:10:45;17.20;63.80
2579;DHT22;1299;48.282;14.398;2023-02-28T07:13:12;17.50;65.40
2579;DHT22;1299;48.282;14.398;2023-02-28T07:15:41;17.60;62.00
2579;DHT22;1299;48.282;14.398;2023-02-28T07:18:08;17.80;61.30
2579;DHT22;1299;48.282;14.398;2023-02-28T07:20:35;18.40;62.30
2579;DHT22;1299;48.282;14.398;2023-02-28T07:23:03;18.80;60.10
2579;DHT22;1299;48.282;14.398;2023-02-28T07:25:30;18.50;60.80
2579;DHT22;1299;48.282;14.398;2023-02-28T07:27:57;18.80;59.30
2579;DHT22;1299;48.282;14.398;2023-02-28T07:30:26;17.00;56.10
2579;DHT22;1299;48.282;14.398;2023-02-28T07:32:55;17.70;58.60
2579;DHT22;1299;48.282;14.398;2023-02-28T07:35:23;18.10;59.10
2579;DHT22;1299;48.282;14.398;2023-02-28T07:37:51;18.40;59.00
2579;DHT22;1299;48.282;14.398;2023-02-28T07:40:18;18.60;58.50
2579;DHT22;1299;48.282;14.398;2023-02-28T07:42:45;17.80;57.50
2579;DHT22;1299;48.282;14.398;2023-02-28T07:45:12;16.60;59.30
2579;DHT22;1299;48.282;14.398;2023-02-28T07:47:41;14.80;62.00
2579;DHT22;1299;48.282;14.398;2023-02-28T07:50:13;13.20;59.50
2579;DHT22;1299;48.282;14.398;2023-02-28T07:52:41;12.90;65.80
2579;DHT22;1299;48.282;14.398;2023-02-28T07:55:09;12.70;64.80
2579;DHT22;1299;48.282;14.398;2023-02-28T07:57:37;11.60;63.80
2579;DHT22;1299;48.282;14.398;2023-02-28T08:00:06;11.50;65.80
2579;DHT22;1299;48.282;14.398;2023-02-28T08:02:36;11.30;67.40
2579;DHT22;1299;48.282;14.398;2023-02-28T08:05:04;11.10;67.20
2579;DHT22;1299;48.282;14.398;2023-02-28T08:07:32;8.60;66.10
2579;DHT22;1299;48.282;14.398;2023-02-28T08:10:00;9.90;70.60
2579;DHT22;1299;48.282;14.398;2023-02-28T08:12:28;10.20;69.30
2579;DHT22;1299;48.282;14.398;2023-02-28T08:14:55;9.80;70.70
2579;DHT22;1299;48.282;14.398;2023-02-28T08:17:22;10.10;69.50
2579;DHT22;1299;48.282;14.398;2023-02-28T08:19:50;10.20;70.10
2579;DHT22;1299;48.282;14.398;2023-02-28T08:22:17;10.20;68.90
2579;DHT22;1299;48.282;14.398;2023-02-28T08:24:46;9.30;69.00
2579;DHT22;1299;48.282;14.398;2023-02-28T08:27:13;8.20;70.70
2579;DHT22;1299;48.282;14.398;2023-02-28T08:29:40;8.90;71.80
2579;DHT22;1299;48.282;14.398;2023-02-28T08:32:08;8.90;72.30
2579;DHT22;1299;48.282;14.398;2023-02-28T08:34:35;8.80;70.80
2579;DHT22;1299;48.282;14.398;2023-02-28T08:37:02;7.70;71.20
2579;DHT22;1299;48.282;14.398;2023-02-28T08:39:30;8.40;73.10
2579;DHT22;1299;48.282;14.398;2023-02-28T08:41:58;7.50;73.00
2579;DHT22;1299;48.282;14.398;2023-02-28T08:44:26;7.90;74.10
2579;DHT22;1299;48.282;14.398;2023-02-28T08:46:53;8.00;72.80
2579;DHT22;1299;48.282;14.398;2023-02-28T08:49:21;8.60;75.20
2579;DHT22;1299;48.282;14.398;2023-02-28T08:51:48;8.80;74.20
2579;DHT22;1299;48.282;14.398;2023-02-28T08:54:15;8.70;73.90
2579;DHT22;1299;48.282;14.398;2023-02-28T08:56:45;8.50;73.40
2579;DHT22;1299;48.282;14.398;2023-02-28T08:59:14;8.70;72.90
2579;DHT22;1299;48.282;14.398;2023-02-28T09:01:42;7.40;74.40
2579;DHT22;1299;48.282;14.398;2023-02-28T09:04:10;6.90;74.90
2579;DHT22;1299;48.282;14.398;2023-02-28T09:06:38;7.70;77.50
2579;DHT22;1299;48.282;14.398;2023-02-28T09:09:05;7.00;74.60
2579;DHT22;1299;48.282;14.398;2023-02-28T09:11:34;6.20;76.20
2579;DHT22;1299;48.282;14.398;2023-02-28T09:14:02;5.60;77.60
2579;DHT22;1299;48.282;14.398;2023-02-28T09:16:32;5.20;77.50
2579;DHT22;1299;48.282;14.398;2023-02-28T09:18:59;5.10;79.70
2579;DHT22;1299;48.282;14.398;2023-02-28T09:21:28;5.80;80.10
2579;DHT22;1299;48.282;14.398;2023-02-28T09:23:55;5.40;79.30
2579;DHT22;1299;48.282;14.398;2023-02-28T09:26:24;5.20;80.80
2579;DHT22;1299;48.282;14.398;2023-02-28T09:28:53;5.10;81.20
2579;DHT22;1299;48.282;14.398;2023-02-28T09:31:22;5.00;81.30
2579;DHT22;1299;48.282;14.398;2023-02-28T09:33:53;5.60;82.40
2579;DHT22;1299;48.282;14.398;2023-02-28T09:36:22;5.10;82.00
2579;DHT22;1299;48.282;14.398;2023-02-28T09:38:49;5.60;84.70
2579;DHT22;1299;48.282;14.398;2023-02-28T09:41:22;5.90;82.60
2579;DHT22;1299;48.282;14.398;2023-02-28T09:43:53;5.40;82.00
2579;DHT22;1299;48.282;14.398;2023-02-28T09:46:29;5.40;83.40
2579;DHT22;1299;48.282;14.398;2023-02-28T09:49:01;5.10;82.70
2579;DHT22;1299;48.282;14.398;2023-02-28T09:51:37;5.10;83.10
2579;DHT22;1299;48.282;14.398;2023-02-28T09:54:13;4.80;83.40
2579;DHT22;1299;48.282;14.398;2023-02-28T09:56:47;4.90;84.80
2579;DHT22;1299;48.282;14.398;2023-02-28T09:59:28;5.10;84.40
2579;DHT22;1299;48.282;14.398;2023-02-28T10:02:03;5.00;83.50
2579;DHT22;1299;48.282;14.398;2023-02-28T10:04:43;5.20;84.80
2579;DHT22;1299;48.282;14.398;2023-02-28T10:07:32;5.60;84.10
2579;DHT22;1299;48.282;14.398;2023-02-28T10:12:44;5.10;84.70
2579;DHT22;1299;48.282;14.398;2023-02-28T10:15:14;5.00;84.90
2579;DHT22;1299;48.282;14.398;2023-02-28T10:17:45;4.90;84.40
2579;DHT22;1299;48.282;14.398;2023-02-28T10:20:19;4.90;84.10
2579;DHT22;1299;48.282;14.398;2023-02-28T10:22:52;5.20;84.80
2579;DHT22;1299;48.282;14.398;2023-02-28T10:25:23;5.50;84.10
2579;DHT22;1299;48.282;14.398;2023-02-28T10:27:53;5.60;84.00
2579;DHT22;1299;48.282;14.398;2023-02-28T10:30:21;5.10;82.30
2579;DHT22;1299;48.282;14.398;2023-02-28T10:32:51;5.30;83.50
2579;DHT22;1299;48.282;14.398;2023-02-28T10:35:23;5.60;83.60
2579;DHT22;1299;48.282;14.398;2023-02-28T10:37:54;5.80;83.40
2579;DHT22;1299;48.282;14.398;2023-02-28T10:40:29;5.60;83.30
2579;DHT22;1299;48.282;14.398;2023-02-28T10:42:58;5.50;82.40
2579;DHT22;1299;48.282;14.398;2023-02-28T10:45:27;5.40;82.10
2579;DHT22;1299;48.282;14.398;2023-02-28T10:47:58;5.50;81.70
2579;DHT22;1299;48.282;14.398;2023-02-28T10:50:34;5.30;81.60
2579;DHT22;1299;48.282;14.398;2023-02-28T10:53:28;5.50;82.30
2579;DHT22;1299;48.282;14.398;2023-02-28T10:55:59;5.60;83.20
2579;DHT22;1299;48.282;14.398;2023-02-28T10:58:30;5.80;83.10
2579;DHT22;1299;48.282;14.398;2023-02-28T11:00:59;5.90;83.20
2579;DHT22;1299;48.282;14.398;2023-02-28T11:03:32;6.30;82.70
2579;DHT22;1299;48.282;14.398;2023-02-28T11:06:06;6.20;83.20
2579;DHT22;1299;48.282;14.398;2023-02-28T11:08:34;6.30;82.50
2579;DHT22;1299;48.282;14.398;2023-02-28T11:11:06;6.70;83.20
2579;DHT22;1299;48.282;14.398;2023-02-28T11:13:35;6.60;82.80
2579;DHT22;1299;48.282;14.398;2023-02-28T11:16:05;6.70;83.30
2579;DHT22;1299;48.282;14.398;2023-02-28T11:18:38;6.10;81.70
2579;DHT22;1299;48.282;14.398;2023-02-28T11:21:11;6.40;82.30
2579;DHT22;1299;48.282;14.398;2023-02-28T11:23:43;6.30;82.50
2579;DHT22;1299;48.282;14.398;2023-02-28T11:26:11;6.40;83.10
2579;DHT22;1299;48.282;14.398;2023-02-28T11:28:39;6.60;82.60
2579;DHT22;1299;48.282;14.398;2023-02-28T11:31:17;6.20;82.10
2579;DHT22;1299;48.282;14.398;2023-02-28T11:33:49;6.10;82.70
2579;DHT22;1299;48.282;14.398;2023-02-28T11:36:21;6.30;83.70
2579;DHT22;1299;48.282;14.398;2023-02-28T11:38:51;6.20;82.70
2579;DHT22;1299;48.282;14.398;2023-02-28T11:41:46;6.10;84.20
2579;DHT22;1299;48.282;14.398;2023-02-28T11:44:30;6.50;85.10
2579;DHT22;1299;48.282;14.398;2023-02-28T11:47:06;6.80;84.30
2579;DHT22;1299;48.282;14.398;2023-02-28T11:49:41;7.30;83.10
2579;DHT22;1299;48.282;14.398;2023-02-28T11:52:20;6.40;81.90
2579;DHT22;1299;48.282;14.398;2023-02-28T11:55:04;6.70;82.80
2579;DHT22;1299;48.282;14.398;2023-02-28T11:57:48;6.60;83.60
2579;DHT22;1299;48.282;14.398;2023-02-28T12:00:45;6.50;83.60
2579;DHT22;1299;48.282;14.398;2023-02-28T12:03:27;6.00;83.40
2579;DHT22;1299;48.282;14.398;2023-02-28T12:06:11;6.20;83.60
2579;DHT22;1299;48.282;14.398;2023-02-28T12:09:03;6.50;86.00
2579;DHT22;1299;48.282;14.398;2023-02-28T12:11:43;6.90;84.60
2579;DHT22;1299;48.282;14.398;2023-02-28T12:14:39;7.40;84.70
2579;DHT22;1299;48.282;14.398;2023-02-28T12:17:29;7.50;84.30
2579;DHT22;1299;48.282;14.398;2023-02-28T12:20:05;7.00;82.60
2579;DHT22;1299;48.282;14.398;2023-02-28T12:22:43;7.00;83.40
2579;DHT22;1299;48.282;14.398;2023-02-28T12:25:49;7.60;84.20
2579;DHT22;1299;48.282;14.398;2023-02-28T12:28:23;7.30;83.60
2579;DHT22;1299;48.282;14.398;2023-02-28T12:30:54;7.10;84.50
2579;DHT22;1299;48.282;14.398;2023-02-28T12:33:28;7.30;84.40
2579;DHT22;1299;48.282;14.398;2023-02-28T12:36:03;7.60;84.70
2579;DHT22;1299;48.282;14.398;2023-02-28T12:38:36;7.60;83.80
2579;DHT22;1299;48.282;14.398;2023-02-28T12:41:11;7.30;82.90
2579;DHT22;1299;48.282;14.398;2023-02-28T12:43:43;7.40;84.10
2579;DHT22;1299;48.282;14.398;2023-02-28T12:46:16;7.10;85.00
2579;DHT22;1299;48.282;14.398;2023-02-28T12:48:46;7.80;85.40
2579;DHT22;1299;48.282;14.398;2023-02-28T12:51:15;7.50;83.30
2579;DHT22;1299;48.282;14.398;2023-02-28T12:53:54;7.10;83.70
2579;DHT22;1299;48.282;14.398;2023-02-28T12:56:35;7.60;85.30
2579;DHT22;1299;48.282;14.398;2023-02-28T12:59:13;7.40;85.80
2579;DHT22;1299;48.282;14.398;2023-02-28T13:01:59;7.70;86.20
2579;DHT22;1299;48.282;14.398;2023-02-28T13:05:01;7.30;84.20
2579;DHT22;1299;48.282;14.398;2023-02-28T13:07:53;7.00;84.10
2579;DHT22;1299;48.282;14.398;2023-02-28T13:10:23;7.00;84.80
2579;DHT22;1299;48.282;14.398;2023-02-28T13:12:54;7.50;85.10
2579;DHT22;1299;48.282;14.398;2023-02-28T13:15:24;7.50;86.50
2579;DHT22;1299;48.282;14.398;2023-02-28T13:17:56;7.40;85.20
2579;DHT22;1299;48.282;14.398;2023-02-28T13:20:25;7.40;83.30
2579;DHT22;1299;48.282;14.398;2023-02-28T13:22:54;7.50;83.70
2579;DHT22;1299;48.282;14.398;2023-02-28T13:34:33;7.00;84.40
2579;DHT22;1299;48.282;14.398;2023-02-28T13:37:35;7.60;86.00
2579;DHT22;1299;48.282;14.398;2023-02-28T13:40:28;7.40;85.60
2579;DHT22;1299;48.282;14.398;2023-02-28T13:42:56;7.80;85.40
2579;DHT22;1299;48.282;14.398;2023-02-28T13:45:26;7.60;84.80
2579;DHT22;1299;48.282;14.398;2023-02-28T13:47:59;7.60;84.30
2579;DHT22;1299;48.282;14.398;2023-02-28T13:50:32;7.50;84.30
2579;DHT22;1299;48.282;14.398;2023-02-28T13:56:08;7.70;84.70
2579;DHT22;1299;48.282;14.398;2023-02-28T13:58:43;7.80;85.70
2579;DHT22;1299;48.282;14.398;2023-02-28T14:01:26;7.90;84.80
2579;DHT22;1299;48.282;14.398;2023-02-28T14:06:59;7.60;85.80
2579;DHT22;1299;48.282;14.398;2023-02-28T14:09:30;7.60;84.70
2579;DHT22;1299;48.282;14.398;2023-02-28T14:18:16;9.70;86.30
2579;DHT22;1299;48.282;14.398;2023-02-28T14:20:46;10.00;84.90
2579;DHT22;1299;48.282;14.398;2023-02-28T14:23:30;10.30;82.70
2579;DHT22;1299;48.282;14.398;2023-02-28T14:26:03;10.10;84.20
2579;DHT22;1299;48.282;14.398;2023-02-28T14:28:48;10.10;80.30
2579;DHT22;1299;48.282;14.398;2023-02-28T14:31:24;9.60;82.90
2579;DHT22;1299;48.282;14.398;2023-02-28T14:34:12;9.40;82.10
2579;DHT22;1299;48.282;14.398;2023-02-28T14:36:42;9.50;84.70
2579;DHT22;1299;48.282;14.398;2023-02-28T14:39:14;9.80;86.20
2579;DHT22;1299;48.282;14.398;2023-02-28T14:41:43;9.90;84.00
2579;DHT22;1299;48.282;14.398;2023-02-28T14:44:16;10.00;83.80
2579;DHT22;1299;48.282;14.398;2023-02-28T14:46:45;10.00;82.80
2579;DHT22;1299;48.282;14.398;2023-02-28T14:49:17;9.80;84.10
2579;DHT22;1299;48.282;14.398;2023-02-28T14:51:45;9.70;84.20
2579;DHT22;1299;48.282;14.398;2023-02-28T14:54:17;9.60;84.40
2579;DHT22;1299;48.282;14.398;2023-02-28T14:56:50;9.70;84.00
2579;DHT22;1299;48.282;14.398;2023-02-28T14:59:25;9.70;85.60
2579;DHT22;1299;48.282;14.398;2023-02-28T15:02:18;9.70;85.20
2579;DHT22;1299;48.282;14.398;2023-02-28T15:04:56;9.60;85.20
2579;DHT22;1299;48.282;14.398;2023-02-28T15:07:24;9.60;84.60
2579;DHT22;1299;48.282;14.398;2023-02-28T15:10:22;9.50;85.60
2579;DHT22;1299;48.282;14.398;2023-02-28T15:12:52;9.30;84.80
2579;DHT22;1299;48.282;14.398;2023-02-28T15:15:23;9.20;85.50
2579;DHT22;1299;48.282;14.398;2023-02-28T15:17:54;8.90;84.10
2579;DHT22;1299;48.282;14.398;2023-02-28T15:20:24;8.90;85.80
2579;DHT22;1299;48.282;14.398;2023-02-28T15:22:56;8.80;86.60
2579;DHT22;1299;48.282;14.398;2023-02-28T15:25:26;8.80;86.80
2579;DHT22;1299;48.282;14.398;2023-02-28T15:27:55;8.70;86.90
2579;DHT22;1299;48.282;14.398;2023-02-28T15:30:26;8.60;86.90
2579;DHT22;1299;48.282;14.398;2023-02-28T15:33:06;8.50;87.80
2579;DHT22;1299;48.282;14.398;2023-02-28T15:35:39;8.20;87.50
2579;DHT22;1299;48.282;14.398;2023-02-28T15:38:15;8.20;88.20
2579;DHT22;1299;48.282;14.398;2023-02-28T15:40:46;8.20;88.30
2579;DHT22;1299;48.282;14.398;2023-02-28T15:43:24;8.00;87.60
2579;DHT22;1299;48.282;14.398;2023-02-28T15:45:57;8.10;89.00
2579;DHT22;1299;48.282;14.398;2023-02-28T15:48:48;8.20;89.10
2579;DHT22;1299;48.282;14.398;2023-02-28T15:51:19;8.00;89.10
2579;DHT22;1299;48.282;14.398;2023-02-28T15:53:49;8.00;89.10
2579;DHT22;1299;48.282;14.398;2023-02-28T15:56:24;7.70;88.60
2579;DHT22;1299;48.282;14.398;2023-02-28T15:58:54;7.60;88.40
2579;DHT22;1299;48.282;14.398;2023-02-28T16:01:25;7.70;90.10
2579;DHT22;1299;48.282;14.398;2023-02-28T16:03:56;7.70;90.00
2579;DHT22;1299;48.282;14.398;2023-02-28T16:06:38;7.60;89.70
2579;DHT22;1299;48.282;14.398;2023-02-28T16:09:11;7.60;90.00
2579;DHT22;1299;48.282;14.398;2023-02-28T16:11:43;7.50;90.10
2579;DHT22;1299;48.282;14.398;2023-02-28T16:14:16;7.50;90.10
2579;DHT22;1299;48.282;14.398;2023-02-28T16:16:45;7.40;90.40
2579;DHT22;1299;48.282;14.398;2023-02-28T16:19:13;7.50;90.50
2579;DHT22;1299;48.282;14.398;2023-02-28T16:21:41;7.40;90.30
2579;DHT22;1299;48.282;14.398;2023-02-28T16:24:08;7.40;90.50
2579;DHT22;1299;48.282;14.398;2023-02-28T16:26:36;7.40;90.70
2579;DHT22;1299;48.282;14.398;2023-02-28T16:29:08;7.30;90.90
2579;DHT22;1299;48.282;14.398;2023-02-28T16:31:37;7.30;90.50
2579;DHT22;1299;48.282;14.398;2023-02-28T16:34:05;7.20;90.80
2579;DHT22;1299;48.282;14.398;2023-02-28T16:36:32;7.30;91.10
2579;DHT22;1299;48.282;14.398;2023-02-28T16:39:00;7.10;90.60
2579;DHT22;1299;48.282;14.398;2023-02-28T16:41:29;7.10;91.80
2579;DHT22;1299;48.282;14.398;2023-02-28T16:43:58;7.00;90.90
2579;DHT22;1299;48.282;14.398;2023-02-28T16:46:33;7.00;91.50
2579;DHT22;1299;48.282;14.398;2023-02-28T16:49:01;7.00;91.00
2579;DHT22;1299;48.282;14.398;2023-02-28T16:51:28;7.00;91.50
2579;DHT22;1299;48.282;14.398;2023-02-28T16:53:56;7.00;91.40
2579;DHT22;1299;48.282;14.398;2023-02-28T16:56:24;6.90;90.90
2579;DHT22;1299;48.282;14.398;2023-02-28T16:58:56;6.80;91.10
2579;DHT22;1299;48.282;14.398;2023-02-28T17:01:32;6.70;91.10
2579;DHT22;1299;48.282;14.398;2023-02-28T17:04:02;6.50;91.10